Time;durP1;ratioP1;P1;durP2;ratioP2;P2;SDS_P1;SDS_P2;PMS_P1;PMS_P2;Temp;Humidity;BMP_temperature;BMP_pressure;BME280_temperature;BME280_humidity;BME280_pressure;Samples;Min_cycle;Max_cycle;Signal;HPM_P1;HPM_P2
2021/11/29 00:00:12;;;;;;;0.20;0.20;;;;;;;0.05;58.41;98233.94;5055701;28;20037;-74
2021/11/29 00:02:39;;;;;;;0.45;0.45;;;;;;;-0.01;58.44;98232.78;5054574;28;20045;-75
2021/11/29 00:05:05;;;;;;;0.30;0.30;;;;;;;-0.02;58.43;98231.09;5054443;28;20045;-75
2021/11/29 00:07:31;;;;;;;0.30;0.30;;;;;;;-0.05;58.59;98223.38;5054155;28;20045;-73
2021/11/29 00:09:57;;;;;;;0.30;0.30;;;;;;;-0.09;58.39;98245.50;5053759;28;20132;-74
2021/11/29 00:12:23;;;;;;;0.30;0.30;;;;;;;-0.16;58.52;98233.75;5052618;28;20451;-75
2021/11/29 00:14:49;;;;;;;0.30;0.30;;;;;;;-0.23;58.83;98239.88;5051943;28;20049;-73
2021/11/29 00:17:15;;;;;;;0.30;0.30;;;;;;;-0.28;58.91;98227.94;5034444;28;20043;-73
2021/11/29 00:19:41;;;;;;;0.20;0.20;;;;;;;-0.32;58.92;98232.00;5052327;28;20131;-74
2021/11/29 00:22:07;;;;;;;0.30;0.30;;;;;;;-0.34;59.05;98239.47;5052548;28;20538;-74
2021/11/29 00:24:33;;;;;;;0.20;0.20;;;;;;;-0.33;58.94;98238.44;5052332;28;20053;-73
2021/11/29 00:26:59;;;;;;;0.30;0.30;;;;;;;-0.28;59.00;98238.72;5052251;28;20048;-72
2021/11/29 00:29:25;;;;;;;0.75;0.68;;;;;;;-0.28;58.81;98236.91;5051285;28;20044;-73
2021/11/29 00:31:50;;;;;;;0.30;0.30;;;;;;;-0.25;58.65;98232.97;5053421;28;20029;-73
2021/11/29 00:34:16;;;;;;;0.40;0.40;;;;;;;-0.26;58.58;98236.72;5053799;28;20033;-73
2021/11/29 00:36:42;;;;;;;5.18;0.63;;;;;;;-0.31;58.84;98233.69;5052297;28;20528;-74
2021/11/29 00:39:08;;;;;;;0.20;0.20;;;;;;;-0.37;58.85;98229.84;5051979;28;20099;-75
2021/11/29 00:41:34;;;;;;;0.52;0.52;;;;;;;-0.45;58.98;98222.66;5052203;28;20529;-76
2021/11/29 00:43:59;;;;;;;0.30;0.30;;;;;;;-0.53;59.19;98222.69;5052064;28;20029;-75
2021/11/29 00:46:26;;;;;;;1.48;0.47;;;;;;;-0.59;59.20;98223.41;5034037;28;20041;-77
2021/11/29 00:48:51;;;;;;;1.55;0.50;;;;;;;-0.62;59.24;98232.72;5052170;28;20419;-75
2021/11/29 00:51:17;;;;;;;0.22;0.22;;;;;;;-0.61;59.27;98230.88;5051941;28;20033;-76
2021/11/29 00:53:43;;;;;;;0.30;0.30;;;;;;;-0.62;59.30;98221.09;5052250;28;20045;-78
2021/11/29 00:56:08;;;;;;;0.30;0.30;;;;;;;-0.61;59.29;98230.88;5052488;28;20041;-76
2021/11/29 00:58:34;;;;;;;0.28;0.28;;;;;;;-0.60;59.26;98237.94;5052023;28;20045;-74
2021/11/29 01:01:00;;;;;;;0.35;0.35;;;;;;;-0.62;59.21;98246.22;5051447;28;20472;-73
2021/11/29 01:03:26;;;;;;;0.45;0.45;;;;;;;-0.59;59.10;98239.59;5035218;28;20029;-72
2021/11/29 01:05:52;;;;;;;0.47;0.47;;;;;;;-0.53;59.24;98236.19;5053565;28;20066;-73
2021/11/29 01:08:18;;;;;;;0.60;0.60;;;;;;;-0.44;58.94;98245.94;5035442;28;20041;-73
2021/11/29 01:10:43;;;;;;;0.32;0.32;;;;;;;-0.36;58.83;98236.94;5051531;28;20033;-73
2021/11/29 01:13:09;;;;;;;0.60;0.60;;;;;;;-0.29;58.75;98231.69;5051796;28;20093;-74
2021/11/29 01:15:37;;;;;;;0.30;0.30;;;;;;;-0.23;58.68;98231.78;5052019;28;20041;-77
2021/11/29 01:18:12;;;;;;;0.20;0.20;;;;;;;-0.18;58.72;98223.13;5051706;28;20049;-72
2021/11/29 01:20:41;;;;;;;0.30;0.30;;;;;;;-0.13;58.49;98242.34;5052399;28;20071;-70
2021/11/29 01:23:07;;;;;;;0.30;0.30;;;;;;;-0.10;58.61;98241.97;5051922;28;20388;-72
2021/11/29 01:25:33;;;;;;;0.40;0.40;;;;;;;-0.08;58.54;98250.72;5052196;28;20509;-73
2021/11/29 01:27:59;;;;;;;0.30;0.30;;;;;;;-0.05;58.51;98244.97;5056183;28;20136;-73
2021/11/29 01:30:25;;;;;;;0.30;0.30;;;;;;;-0.04;58.50;98243.94;5056223;28;20187;-73
2021/11/29 01:32:51;;;;;;;0.40;0.40;;;;;;;-0.03;58.45;98252.88;5056239;28;20136;-76
2021/11/29 01:35:17;;;;;;;0.30;0.30;;;;;;;-0.04;58.62;98243.13;5056486;28;20383;-69
2021/11/29 01:37:42;;;;;;;0.30;0.30;;;;;;;-0.06;58.64;98237.91;5057055;28;20052;-70
2021/11/29 01:40:09;;;;;;;0.30;0.30;;;;;;;-0.09;58.73;98235.56;5056612;28;20554;-70
2021/11/29 01:42:35;;;;;;;0.30;0.30;;;;;;;-0.10;58.81;98230.34;5055282;28;20047;-69
2021/11/29 01:45:03;;;;;;;0.22;0.22;;;;;;;-0.12;58.94;98237.78;5055163;28;20392;-70
2021/11/29 01:47:28;;;;;;;0.52;0.52;;;;;;;-0.12;58.77;98237.78;5055756;28;20045;-72
2021/11/29 01:49:54;;;;;;;0.20;0.20;;;;;;;-0.13;58.93;98236.94;5055774;28;20093;-72
2021/11/29 01:52:20;;;;;;;0.30;0.30;;;;;;;-0.14;59.03;98235.25;5056186;28;20048;-73
2021/11/29 01:54:46;;;;;;;0.20;0.20;;;;;;;-0.14;59.13;98232.56;5055900;28;20561;-71
2021/11/29 01:57:12;;;;;;;0.93;0.45;;;;;;;-0.14;59.00;98219.06;5037058;28;20033;-73
2021/11/29 01:59:37;;;;;;;0.30;0.30;;;;;;;-0.15;59.16;98219.25;5053520;28;20051;-69
2021/11/29 02:02:04;;;;;;;0.30;0.30;;;;;;;-0.20;58.97;98222.50;5053042;28;20408;-73
2021/11/29 02:04:31;;;;;;;0.30;0.30;;;;;;;-0.24;59.18;98223.88;5054333;28;20045;-64
2021/11/29 02:06:57;;;;;;;0.30;0.30;;;;;;;-0.29;59.54;98223.59;5054778;28;20033;-69
2021/11/29 02:09:23;;;;;;;0.30;0.30;;;;;;;-0.35;59.34;98222.44;5056011;28;20037;-71
